Time;durP1;ratioP1;P1;durP2;ratioP2;P2;SDS_P1;SDS_P2;PMS_P1;PMS_P2;Temp;Humidity;BMP_temperature;BMP_pressure;BME280_temperature;BME280_humidity;BME280_pressure;Samples;Min_cycle;Max_cycle;Signal;HPM_P1;HPM_P2
2023/08/19 00:00:20;;;;;;;15.30;11.60;;;;;;;17.61;100.00;99718.19;434874;1257;147933;-64
2023/08/19 00:10:26;;;;;;;14.50;13.20;;;;;;;17.58;100.00;99715.76;435025;1254;141481;-64
2023/08/19 00:20:32;;;;;;;15.10;13.60;;;;;;;17.69;100.00;99715.45;435006;1257;140209;-64
2023/08/19 00:30:39;;;;;;;18.20;16.60;;;;;;;17.86;100.00;99715.47;435028;1257;139547;-64
2023/08/19 00:40:44;;;;;;;16.00;14.40;;;;;;;18.00;100.00;99722.93;435127;1254;141010;-65
2023/08/19 00:50:50;;;;;;;20.40;18.00;;;;;;;18.07;100.00;99727.58;435368;1254;140553;-65
2023/08/19 01:00:56;;;;;;;17.40;15.70;;;;;;;18.14;100.00;99714.41;435568;1254;140055;-66
2023/08/19 01:11:11;;;;;;;14.50;13.20;;;;;;;18.18;100.00;99712.98;435125;1256;140551;-65
2023/08/19 01:21:17;;;;;;;15.50;14.00;;;;;;;18.15;100.00;99706.01;435192;1257;140058;-64
2023/08/19 01:31:23;;;;;;;15.90;13.40;;;;;;;18.11;100.00;99709.50;435015;1257;139847;-65
2023/08/19 01:41:30;;;;;;;18.30;16.00;;;;;;;17.98;100.00;99701.80;434932;1257;139514;-66
2023/08/19 01:51:36;;;;;;;14.70;13.40;;;;;;;17.87;100.00;99697.34;434471;1258;140557;-67
2023/08/19 02:01:42;;;;;;;16.10;14.80;;;;;;;17.82;100.00;99692.15;434726;1254;141035;-65
2023/08/19 02:11:48;;;;;;;16.80;15.30;;;;;;;17.78;100.00;99689.17;434825;1255;139753;-64
2023/08/19 02:21:53;;;;;;;17.70;16.10;;;;;;;17.72;100.00;99683.01;434702;1254;140528;-64
2023/08/19 02:31:59;;;;;;;18.90;17.20;;;;;;;17.71;100.00;99689.45;434914;1256;139942;-64
2023/08/19 02:42:05;;;;;;;16.40;14.90;;;;;;;17.65;100.00;99694.03;435053;1256;139650;-66
2023/08/19 02:52:11;;;;;;;15.70;14.20;;;;;;;17.61;100.00;99681.68;434722;1254;140068;-65
2023/08/19 03:02:17;;;;;;;13.60;12.30;;;;;;;17.58;100.00;99680.71;434860;1257;140993;-65
2023/08/19 03:12:23;;;;;;;22.30;14.10;;;;;;;17.43;100.00;99676.63;434813;1256;140404;-64
2023/08/19 03:22:29;;;;;;;17.80;15.90;;;;;;;17.31;100.00;99670.45;434750;1256;140728;-64
2023/08/19 03:32:35;;;;;;;15.00;11.50;;;;;;;17.24;100.00;99671.80;434879;1256;139809;-64
2023/08/19 03:42:41;;;;;;;14.70;13.30;;;;;;;17.19;100.00;99674.88;434824;1257;139454;-64
2023/08/19 03:52:47;;;;;;;14.30;13.00;;;;;;;17.17;100.00;99687.21;434681;1255;140821;-65
2023/08/19 04:02:52;;;;;;;14.60;13.20;;;;;;;17.29;100.00;99686.17;434692;1256;140224;-65
2023/08/19 04:12:58;;;;;;;13.40;11.10;;;;;;;17.55;100.00;99691.48;434802;1254;139468;-65
2023/08/19 04:23:04;;;;;;;14.70;13.20;;;;;;;17.91;100.00;99697.52;434674;1257;140122;-65
2023/08/19 04:33:10;;;;;;;14.80;13.40;;;;;;;18.36;100.00;99701.37;434768;1256;140001;-65
2023/08/19 04:43:16;;;;;;;13.80;12.50;;;;;;;18.76;100.00;99707.27;434876;1254;140716;-65
2023/08/19 04:53:21;;;;;;;16.00;14.40;;;;;;;19.29;100.00;99712.17;434668;1257;140034;-65
2023/08/19 05:03:27;;;;;;;16.00;13.70;;;;;;;19.82;100.00;99709.40;434643;1254;140347;-66
2023/08/19 05:13:33;;;;;;;11.90;10.90;;;;;;;20.85;100.00;99710.91;434717;1254;140902;-66
2023/08/19 05:23:38;;;;;;;8.70;8.00;;;;;;;25.32;100.00;99705.96;434950;1257;139617;-65
2023/08/19 05:33:45;;;;;;;9.50;8.60;;;;;;;30.41;97.49;99705.13;435269;1256;141200;-65
2023/08/19 05:43:50;;;;;;;8.00;7.40;;;;;;;34.26;86.10;99712.09;434933;1257;138999;-66
2023/08/19 05:54:01;;;;;;;7.20;6.50;;;;;;;37.89;74.96;99718.67;434805;1256;138734;-66
2023/08/19 06:04:07;;;;;;;6.70;6.00;;;;;;;41.10;64.71;99709.07;434278;1257;138994;-66
2023/08/19 06:14:13;;;;;;;6.70;5.30;;;;;;;43.33;55.99;99712.48;434665;1256;139510;-67
2023/08/19 06:24:19;;;;;;;5.50;5.00;;;;;;;45.55;46.48;99714.23;434542;1258;138322;-67
2023/08/19 06:34:27;;;;;;;4.20;3.90;;;;;;;47.51;39.23;99721.54;434457;1258;138777;-64
2023/08/19 06:44:37;;;;;;;4.90;4.60;;;;;;;49.47;35.06;99727.67;434975;1257;138695;-66
2023/08/19 06:54:44;;;;;;;6.10;4.70;;;;;;;51.31;31.67;99728.47;435440;1256;138422;-65
2023/08/19 07:04:51;;;;;;;4.50;4.20;;;;;;;52.87;28.53;99742.13;436312;1252;138355;-65
2023/08/19 07:14:58;;;;;;;5.20;4.80;;;;;;;54.24;26.33;99754.05;435324;1253;138309;-65
2023/08/19 07:25:07;;;;;;;5.90;5.40;;;;;;;55.56;24.29;99762.69;435523;1253;138379;-65
2023/08/19 07:35:12;;;;;;;7.20;5.90;;;;;;;56.60;22.71;99769.38;435315;1254;139172;-64
2023/08/19 07:45:18;;;;;;;8.40;7.50;;;;;;;56.63;21.54;99770.90;435044;1256;138292;-66
2023/08/19 07:55:25;;;;;;;9.10;8.50;;;;;;;57.39;20.92;99773.39;435453;1257;138269;-66
2023/08/19 08:05:31;;;;;;;8.50;7.90;;;;;;;57.95;19.77;99771.59;435485;1257;139058;-64
2023/08/19 08:15:37;;;;;;;7.30;6.70;;;;;;;57.28;19.57;99770.42;435198;1257;138358;-66
2023/08/19 08:25:43;;;;;;;5.10;4.70;;;;;;;56.66;19.38;99764.35;435331;1254;138708;-66
2023/08/19 08:35:49;;;;;;;5.10;4.60;;;;;;;51.59;20.51;99754.49;435270;1257;138833;-66
2023/08/19 08:45:57;;;;;;;9.00;6.70;;;;;;;46.47;23.49;99753.43;435269;1256;138692;-65
2023/08/19 08:56:03;;;;;;;8.30;6.30;;;;;;;42.94;26.31;99755.34;435186;1257;139404;-65
2023/08/19 09:06:15;;;;;;;8.20;6.30;;;;;;;40.77;29.01;99751.45;435537;1253;139170;-66
2023/08/19 09:16:21;;;;;;;7.60;6.20;;;;;;;38.97;30.77;99752.97;435408;1256;140046;-65
2023/08/19 09:26:29;;;;;;;8.10;7.10;;;;;;;37.76;32.61;99748.11;435866;1256;139181;-69
2023/08/19 09:36:35;;;;;;;7.30;6.00;;;;;;;36.92;33.82;99745.73;435361;1256;138407;-65
2023/08/19 09:46:43;;;;;;;7.70;6.90;;;;;;;36.09;35.11;99740.92;435080;1253;139334;-70
2023/08/19 09:56:56;;;;;;;6.40;5.80;;;;;;;35.29;36.16;99741.84;435066;1258;139605;-64
2023/08/19 10:07:04;;;;;;;6.40;5.80;;;;;;;34.80;37.35;99737.55;435625;1256;139275;-65
2023/08/19 10:17:11;;;;;;;6.70;6.20;;;;;;;34.46;38.21;99736.17;435545;1254;138548;-64
2023/08/19 10:27:20;;;;;;;6.00;5.50;;;;;;;33.89;39.19;99730.10;435438;1255;139144;-68
2023/08/19 10:37:33;;;;;;;10.00;6.00;;;;;;;33.48;40.16;99724.69;435465;1256;138375;-63
2023/08/19 10:47:42;;;;;;;6.70;6.10;;;;;;;33.14;41.07;99722.30;435325;1253;138560;-70
2023/08/19 10:57:48;;;;;;;6.90;6.30;;;;;;;32.85;40.64;99723.40;436063;1253;139038;-70
2023/08/19 11:07:54;;;;;;;11.70;8.30;;;;;;;32.65;41.09;99720.90;438379;1253;139313;-69
2023/08/19 11:18:02;;;;;;;7.30;6.60;;;;;;;32.44;41.67;99721.35;438246;1254;138438;-67
2023/08/19 11:28:08;;;;;;;7.90;6.80;;;;;;;32.15;42.80;99721.81;438148;1257;140274;-65
2023/08/19 11:38:18;;;;;;;8.00;6.50;;;;;;;32.25;43.41;99717.04;437836;1253;138534;-81
2023/08/19 11:48:24;;;;;;;7.30;6.60;;;;;;;32.47;43.06;99710.11;436064;1254;139251;-69
2023/08/19 11:58:42;;;;;;;8.20;5.70;;;;;;;32.77;42.83;99711.66;435299;1254;154624;-81
2023/08/19 12:08:48;;;;;;;6.50;6.00;;;;;;;33.23;41.79;99713.48;437833;1257;138830;-63
2023/08/19 12:18:53;;;;;;;;;;;;;;;33.43;41.08;99714.38;435169;1257;139738;-66
2023/08/19 12:28:59;;;;;;;6.60;6.00;;;;;;;33.48;41.11;99711.68;435062;1254;126257;-67
2023/08/19 12:39:05;;;;;;;6.00;5.40;;;;;;;33.56;40.68;99704.69;435027;1256;139365;-68
2023/08/19 12:49:11;;;;;;;7.20;5.70;;;;;;;33.67;40.26;99702.34;435067;1256;139239;-68
2023/08/19 12:59:17;;;;;;;6.40;5.60;;;;;;;33.75;39.18;99703.50;435692;1256;140697;-68
2023/08/19 13:09:24;;;;;;;5.70;5.10;;;;;;;33.63;39.21;99700.05;435541;1256;140091;-67
2023/08/19 13:19:30;;;;;;;5.90;5.40;;;;;;;33.37;39.42;99692.66;435159;1253;138893;-67
2023/08/19 13:29:36;;;;;;;5.50;5.00;;;;;;;33.22;39.93;99692.91;435915;1254;139603;-67
2023/08/19 13:39:42;;;;;;;5.90;5.30;;;;;;;33.06;39.39;99686.33;435398;1254;139410;-68
2023/08/19 13:49:48;;;;;;;5.30;5.00;;;;;;;32.52;39.67;99677.16;435150;1259;138706;-66
2023/08/19 13:59:54;;;;;;;11.00;6.20;;;;;;;32.17;40.25;99657.65;434638;1256;138546;-65
2023/08/19 14:10:00;;;;;;;5.50;5.00;;;;;;;31.97;40.49;99650.39;434785;1257;138868;-66
2023/08/19 14:20:08;;;;;;;5.90;5.40;;;;;;;31.83;40.37;99639.30;435050;1254;140689;-65
2023/08/19 14:30:14;;;;;;;6.40;5.40;;;;;;;31.58;40.83;99633.31;435682;1257;138981;-65
2023/08/19 14:40:23;;;;;;;5.30;4.70;;;;;;;31.24;41.35;99629.23;435688;1253;139585;-66
2023/08/19 14:50:29;;;;;;;6.20;5.20;;;;;;;31.06;41.72;99631.15;435404;1257;139503;-61
2023/08/19 15:00:35;;;;;;;8.20;6.10;;;;;;;30.97;41.63;99635.02;435657;1257;139292;-62
2023/08/19 15:10:41;;;;;;;5.40;5.00;;;;;;;30.91;41.95;99641.28;435422;1257;140049;-62
2023/08/19 15:20:48;;;;;;;7.70;6.80;;;;;;;30.86;42.29;99649.14;435014;1254;138454;-61
2023/08/19 15:30:54;;;;;;;6.50;5.70;;;;;;;30.88;42.32;99649.98;435271;1257;138874;-60
2023/08/19 15:41:00;;;;;;;9.70;6.80;;;;;;;30.81;41.91;99657.23;435057;1257;139774;-62
2023/08/19 15:51:06;;;;;;;6.90;6.30;;;;;;;30.64;42.00;99662.12;435156;1256;138449;-61
2023/08/19 16:01:12;;;;;;;5.60;5.20;;;;;;;30.43;42.64;99670.38;435235;1259;138563;-61
2023/08/19 16:11:18;;;;;;;10.60;6.40;;;;;;;30.32;43.62;99672.67;434986;1257;138966;-62
2023/08/19 16:21:23;;;;;;;9.10;6.10;;;;;;;30.26;43.74;99669.58;435022;1254;139369;-62
2023/08/19 16:31:30;;;;;;;10.80;6.50;;;;;;;30.20;44.11;99667.08;435040;1258;139684;-62
2023/08/19 16:41:35;;;;;;;13.30;9.80;;;;;;;30.00;44.71;99665.28;435220;1257;138534;-62
2023/08/19 16:51:41;;;;;;;8.40;7.60;;;;;;;29.70;45.11;99671.04;435131;1254;139295;-62
2023/08/19 17:01:47;;;;;;;9.00;8.00;;;;;;;29.43;47.34;99676.63;434899;1257;140569;-62
2023/08/19 17:11:53;;;;;;;10.60;9.00;;;;;;;29.07;48.84;99682.57;435308;1253;140439;-61
2023/08/19 17:21:59;;;;;;;10.90;9.80;;;;;;;28.62;50.18;99683.92;435171;1254;138472;-62
2023/08/19 17:32:05;;;;;;;10.70;9.80;;;;;;;28.29;51.72;99693.50;435311;1257;140462;-62
2023/08/19 17:42:11;;;;;;;13.10;10.80;;;;;;;28.13;53.10;99700.36;435673;1254;138665;-64
2023/08/19 17:52:17;;;;;;;11.50;10.30;;;;;;;28.00;54.26;99705.88;435152;1255;138738;-67
2023/08/19 18:02:23;;;;;;;11.10;10.20;;;;;;;27.83;55.43;99710.67;434988;1254;140308;-67
2023/08/19 18:12:29;;;;;;;12.10;10.80;;;;;;;27.56;56.28;99708.45;435227;1257;139055;-67
2023/08/19 18:22:35;;;;;;;11.70;10.20;;;;;;;27.30;57.19;99714.13;435145;1257;138597;-65
2023/08/19 18:32:41;;;;;;;13.10;11.90;;;;;;;27.14;58.38;99721.28;435003;1258;139013;-67
2023/08/19 18:42:47;;;;;;;16.70;14.00;;;;;;;26.95;59.34;99732.88;435053;1257;139647;-65
2023/08/19 18:52:53;;;;;;;15.70;14.20;;;;;;;26.53;60.32;99750.79;434921;1257;139332;-66
2023/08/19 19:02:59;;;;;;;17.60;12.40;;;;;;;26.03;61.59;99760.48;435335;1257;140526;-66
2023/08/19 19:13:08;;;;;;;43.90;18.10;;;;;;;25.57;62.98;99769.25;435702;1254;140753;-67
2023/08/19 19:23:14;;;;;;;18.70;15.20;;;;;;;25.15;64.96;99765.83;435222;1257;141480;-66
2023/08/19 19:33:20;;;;;;;19.70;16.40;;;;;;;24.79;66.69;99773.67;435447;1254;140314;-67
2023/08/19 19:43:27;;;;;;;20.90;17.50;;;;;;;24.47;68.12;99776.96;435380;1254;140332;-65
2023/08/19 19:53:33;;;;;;;21.60;19.40;;;;;;;24.19;69.52;99770.11;435259;1254;139501;-66
2023/08/19 20:03:39;;;;;;;20.70;18.60;;;;;;;23.88;70.62;99772.83;435031;1254;139420;-67
2023/08/19 20:13:49;;;;;;;22.00;19.80;;;;;;;23.63;71.95;99773.94;435162;1257;141197;-67
2023/08/19 20:23:54;;;;;;;22.00;19.10;;;;;;;23.47;73.43;99774.36;435783;1254;139959;-66
2023/08/19 20:34:00;;;;;;;23.80;20.40;;;;;;;23.26;74.35;99769.05;434961;1254;140978;-67
2023/08/19 20:44:10;;;;;;;23.10;20.90;;;;;;;23.05;75.43;99758.69;435108;1257;140582;-66
2023/08/19 20:54:17;;;;;;;21.50;19.30;;;;;;;22.87;76.67;99767.02;435393;1254;139248;-66
2023/08/19 21:04:23;;;;;;;21.90;19.10;;;;;;;22.93;77.96;99769.79;435023;1254;140392;-68
2023/08/19 21:14:31;;;;;;;22.00;19.80;;;;;;;23.14;78.13;99777.91;435478;1254;140440;-67
2023/08/19 21:24:37;;;;;;;21.60;19.30;;;;;;;23.24;77.73;99772.14;435506;1257;141622;-63
2023/08/19 21:34:43;;;;;;;20.80;18.70;;;;;;;23.26;77.75;99767.77;435283;1254;193020;-64
2023/08/19 21:44:49;;;;;;;18.00;16.40;;;;;;;23.23;77.93;99759.23;435494;1257;139549;-64
2023/08/19 21:54:55;;;;;;;25.10;18.30;;;;;;;22.96;77.52;99754.77;435691;1254;139314;-64
2023/08/19 22:05:02;;;;;;;20.10;18.00;;;;;;;22.52;78.10;99759.55;435295;1253;139331;-63
2023/08/19 22:15:10;;;;;;;21.30;19.00;;;;;;;22.18;78.92;99752.00;436635;1255;139896;-64
2023/08/19 22:25:16;;;;;;;21.10;18.90;;;;;;;21.92;79.85;99749.30;435280;1254;139567;-63
2023/08/19 22:35:22;;;;;;;21.20;19.00;;;;;;;21.69;80.65;99754.98;436785;1252;140072;-63
2023/08/19 22:45:27;;;;;;;19.60;17.80;;;;;;;21.45;81.59;99760.68;435035;1253;142635;-64
2023/08/19 22:55:33;;;;;;;20.20;18.10;;;;;;;21.26;82.84;99762.87;435304;1253;139716;-64
2023/08/19 23:05:39;;;;;;;24.90;20.10;;;;;;;21.13;83.99;99755.52;435527;1253;140801;-64
2023/08/19 23:15:48;;;;;;;33.60;22.50;;;;;;;20.99;85.22;99757.93;435482;1254;139420;-64
2023/08/19 23:25:55;;;;;;;29.10;21.90;;;;;;;20.87;86.73;99756.48;435447;1253;139867;-63
2023/08/19 23:36:01;;;;;;;23.60;20.10;;;;;;;20.74;87.17;99757.68;435097;1253;139393;-64
2023/08/19 23:46:09;;;;;;;22.50;20.00;;;;;;;20.62;88.17;99754.29;435445;1256;139733;-63
2023/08/19 23:56:17;;;;;;;25.30;19.90;;;;;;;20.55;89.18;99751.09;434888;1257;226972;-64
